createdAt,value
2022-07-26T00:02:57.875Z,22.32
2022-07-26T00:08:11.113Z,22.17
2022-07-26T00:13:14.296Z,22.23
2022-07-26T00:18:18.022Z,22.19
2022-07-26T00:23:20.855Z,22.03
2022-07-26T00:28:23.877Z,22.00
2022-07-26T00:33:27.059Z,21.92
2022-07-26T00:38:29.945Z,21.71
2022-07-26T00:43:34.109Z,21.81
2022-07-26T00:48:38.087Z,21.72
2022-07-26T00:53:40.985Z,21.69
2022-07-26T00:58:44.855Z,21.56
2022-07-26T01:03:52.097Z,21.85
2022-07-26T01:08:55.255Z,21.94
2022-07-26T01:13:57.953Z,21.97
2022-07-26T01:19:00.502Z,22.14
2022-07-26T01:24:03.054Z,22.26
2022-07-26T01:29:06.137Z,22.19
2022-07-26T01:34:09.935Z,22.26
2022-07-26T01:39:12.736Z,22.40
2022-07-26T01:44:15.640Z,22.48
2022-07-26T01:49:18.367Z,22.46
2022-07-26T01:54:22.465Z,22.54
2022-07-26T01:59:27.174Z,22.68
2022-07-26T02:04:48.439Z,22.78
2022-07-26T02:09:51.216Z,22.83
2022-07-26T02:14:55.414Z,22.76
2022-07-26T02:19:58.060Z,22.67
2022-07-26T02:25:04.965Z,22.76
2022-07-26T02:30:08.451Z,22.68
2022-07-26T02:35:12.036Z,22.65
2022-07-26T02:40:19.124Z,22.82
2022-07-26T02:45:22.251Z,22.64
2022-07-26T02:50:26.552Z,22.68
2022-07-26T02:55:29.226Z,22.69
2022-07-26T03:00:31.659Z,22.64
2022-07-26T03:05:34.520Z,22.69
2022-07-26T03:10:37.396Z,22.63
2022-07-26T03:15:40.119Z,22.70
2022-07-26T03:20:42.646Z,22.53
2022-07-26T03:25:45.307Z,22.37
2022-07-26T03:30:47.846Z,22.36
2022-07-26T03:35:50.717Z,22.29
2022-07-26T03:40:53.505Z,22.30
2022-07-26T03:45:56.312Z,23.09
2022-07-26T03:50:58.913Z,23.83
2022-07-26T03:56:29.579Z,24.18
2022-07-26T04:01:32.039Z,23.77
2022-07-26T04:06:34.720Z,23.44
2022-07-26T04:11:37.791Z,23.10
2022-07-26T04:16:43.693Z,23.01
2022-07-26T04:21:46.564Z,22.77
2022-07-26T04:26:49.693Z,22.65
2022-07-26T04:31:52.528Z,22.61
2022-07-26T04:36:56.072Z,22.78
2022-07-26T04:41:58.629Z,22.98
2022-07-26T04:47:01.334Z,23.34
2022-07-26T04:52:04.657Z,24.40
2022-07-26T04:57:07.414Z,25.18
2022-07-26T05:02:11.021Z,25.73
2022-07-26T05:07:13.592Z,25.82
2022-07-26T05:12:17.172Z,25.03
2022-07-26T05:17:19.957Z,24.61
2022-07-26T05:22:24.831Z,24.18
2022-07-26T05:27:28.319Z,23.67
2022-07-26T05:32:32.095Z,23.55
2022-07-26T05:45:22.489Z,22.68
2022-07-26T05:50:25.019Z,23.05
2022-07-26T05:55:29.754Z,22.71
2022-07-26T06:00:32.535Z,22.44
2022-07-26T06:05:35.683Z,22.48
2022-07-26T06:10:38.326Z,21.66
2022-07-26T06:15:42.523Z,21.67
2022-07-26T06:20:46.712Z,21.70
2022-07-26T06:25:49.737Z,21.19
2022-07-26T06:30:52.398Z,20.91
2022-07-26T06:35:54.934Z,21.02
2022-07-26T06:40:57.829Z,21.01
2022-07-26T06:46:01.155Z,21.05
2022-07-26T06:51:05.336Z,21.14
2022-07-26T06:56:08.967Z,21.13
2022-07-26T07:01:12.080Z,21.40
2022-07-26T07:06:15.017Z,21.66
2022-07-26T07:11:17.974Z,21.38
2022-07-26T07:16:23.001Z,21.34
2022-07-26T07:21:26.045Z,21.48
2022-07-26T07:26:28.803Z,21.61
2022-07-26T07:31:48.604Z,21.50
2022-07-26T07:36:52.827Z,21.69
2022-07-26T07:41:56.013Z,21.71
2022-07-26T07:46:59.023Z,21.65
2022-07-26T07:52:02.045Z,21.77
2022-07-26T07:57:05.908Z,21.64
2022-07-26T08:02:09.518Z,21.33
2022-07-26T08:07:12.284Z,21.65
2022-07-26T08:12:14.875Z,21.62
2022-07-26T08:17:17.697Z,21.48
2022-07-26T08:22:24.910Z,21.43
2022-07-26T08:27:27.492Z,21.38
2022-07-26T08:32:30.056Z,21.37
2022-07-26T08:37:32.703Z,21.50
2022-07-26T08:42:35.361Z,21.36
2022-07-26T08:47:50.264Z,21.29
2022-07-26T08:53:09.582Z,21.04
2022-07-26T08:58:12.225Z,21.19
2022-07-26T09:03:27.121Z,21.31
2022-07-26T09:08:30.903Z,21.51
2022-07-26T09:13:58.998Z,21.78
2022-07-26T09:19:28.752Z,21.94
2022-07-26T09:24:35.506Z,22.41
2022-07-26T09:29:44.810Z,22.40
2022-07-26T09:34:52.941Z,22.60
2022-07-26T09:40:00.616Z,22.00
2022-07-26T09:45:05.509Z,21.85
2022-07-26T09:50:25.091Z,21.88
2022-07-26T09:55:34.047Z,21.92
2022-07-26T10:00:43.519Z,21.79
2022-07-26T10:05:47.674Z,21.61
2022-07-26T10:11:09.912Z,21.76
2022-07-26T10:16:33.535Z,21.81
2022-07-26T10:21:36.406Z,22.05
2022-07-26T10:26:43.098Z,21.86
2022-07-26T10:32:11.200Z,22.18
2022-07-26T10:37:24.985Z,22.24
2022-07-26T10:42:43.763Z,22.41
2022-07-26T10:48:12.008Z,22.28
2022-07-26T10:53:20.559Z,21.94
2022-07-26T10:58:24.984Z,22.24
2022-07-26T11:03:41.578Z,22.68
2022-07-26T11:08:48.298Z,22.73
2022-07-26T11:13:51.426Z,22.63
2022-07-26T11:18:55.422Z,23.27
2022-07-26T11:24:04.026Z,23.56
2022-07-26T11:29:06.982Z,23.50
2022-07-26T11:34:17.440Z,23.54
2022-07-26T11:39:30.688Z,23.74
2022-07-26T11:44:34.042Z,23.83
2022-07-26T11:49:51.780Z,23.97
2022-07-26T11:54:59.696Z,24.05
2022-07-26T12:00:02.829Z,24.45
2022-07-26T12:05:20.015Z,24.32
2022-07-26T12:10:23.330Z,24.43
2022-07-26T12:23:13.021Z,24.29
2022-07-26T12:28:15.675Z,24.72
2022-07-26T12:33:18.250Z,24.88
2022-07-26T12:38:40.086Z,24.74
2022-07-26T12:43:42.772Z,24.64
2022-07-26T12:48:55.522Z,24.85
2022-07-26T12:54:00.866Z,24.99
2022-07-26T12:59:03.876Z,24.82
2022-07-26T13:04:07.010Z,25.17
2022-07-26T13:09:09.753Z,25.06
2022-07-26T13:14:13.542Z,24.86
2022-07-26T13:19:17.668Z,25.01
2022-07-26T13:24:20.912Z,25.16
2022-07-26T13:29:25.242Z,25.62
2022-07-26T13:34:34.782Z,25.62
2022-07-26T13:39:38.442Z,25.96
2022-07-26T13:44:40.826Z,26.25
2022-07-26T13:49:44.457Z,26.22
2022-07-26T13:54:47.400Z,26.44
2022-07-26T13:59:50.089Z,26.44
2022-07-26T14:04:52.888Z,26.19
2022-07-26T14:09:55.672Z,26.26
2022-07-26T14:14:59.181Z,26.49
2022-07-26T14:20:01.765Z,26.56
2022-07-26T14:25:04.915Z,26.43
2022-07-26T14:30:07.857Z,26.72
2022-07-26T14:35:11.560Z,26.77
2022-07-26T14:40:16.318Z,26.77
2022-07-26T14:45:19.091Z,26.71
2022-07-26T14:50:26.241Z,26.51
2022-07-26T14:55:29.115Z,26.21
2022-07-26T15:00:32.167Z,26.60
2022-07-26T15:05:34.658Z,26.35
2022-07-26T15:10:37.813Z,25.87
2022-07-26T15:15:40.710Z,25.82
2022-07-26T15:20:43.517Z,26.27
2022-07-26T15:25:48.818Z,26.54
2022-07-26T15:30:51.667Z,26.30
2022-07-26T15:35:55.704Z,26.11
2022-07-26T15:40:58.524Z,26.13
2022-07-26T15:46:01.137Z,26.04
2022-07-26T15:51:06.036Z,25.66
2022-07-26T15:56:09.410Z,25.72
2022-07-26T16:01:12.056Z,25.77
2022-07-26T16:06:14.871Z,25.31
2022-07-26T16:11:17.754Z,25.69
2022-07-26T16:16:20.483Z,25.20
2022-07-26T16:21:23.487Z,24.98
2022-07-26T16:26:26.636Z,24.33
2022-07-26T16:31:29.217Z,23.79
2022-07-26T16:36:31.926Z,23.42
2022-07-26T16:41:34.508Z,23.48
2022-07-26T16:46:37.043Z,23.48
2022-07-26T16:51:39.902Z,23.63
2022-07-26T16:56:42.556Z,23.78
2022-07-26T17:01:45.620Z,23.62
2022-07-26T17:07:14.511Z,24.05
2022-07-26T17:12:11.669Z,24.07
2022-07-26T17:17:14.347Z,23.80
2022-07-26T17:22:17.589Z,23.68
2022-07-26T17:27:20.227Z,23.88
2022-07-26T17:32:22.957Z,24.16
2022-07-26T17:37:27.847Z,24.02
2022-07-26T17:42:31.568Z,24.65
2022-07-26T17:47:34.166Z,24.25
2022-07-26T17:52:36.845Z,23.94
2022-07-26T17:57:40.222Z,23.55
2022-07-26T18:02:43.123Z,23.28
2022-07-26T18:07:46.516Z,23.16
2022-07-26T18:12:49.511Z,22.89
2022-07-26T18:17:52.172Z,22.85
2022-07-26T18:22:55.839Z,22.66
2022-07-26T18:28:01.980Z,22.60
2022-07-26T18:33:11.056Z,22.59
2022-07-26T18:38:13.770Z,22.42
2022-07-26T18:43:16.527Z,22.19
2022-07-26T18:48:19.346Z,22.01
2022-07-26T18:53:23.304Z,21.82
2022-07-26T18:58:27.534Z,21.83
2022-07-26T19:03:34.892Z,21.81
2022-07-26T19:08:37.446Z,21.55
2022-07-26T19:13:41.901Z,21.42
2022-07-26T19:18:48.933Z,21.15
2022-07-26T19:23:53.028Z,20.99
2022-07-26T19:28:55.800Z,20.77
2022-07-26T19:33:58.234Z,20.55
2022-07-26T19:39:01.632Z,20.40
2022-07-26T19:44:04.723Z,20.28
2022-07-26T19:49:10.350Z,20.22
2022-07-26T19:54:13.454Z,20.15
2022-07-26T19:59:20.889Z,20.01
2022-07-26T20:04:25.335Z,19.85
2022-07-26T20:09:30.139Z,19.83
2022-07-26T20:14:32.822Z,19.74
2022-07-26T20:19:35.460Z,19.65
2022-07-26T20:24:40.825Z,19.58
2022-07-26T20:29:43.347Z,19.56
2022-07-26T20:34:45.792Z,19.49
2022-07-26T20:39:48.388Z,19.50
2022-07-26T20:44:52.956Z,19.46
2022-07-26T20:49:58.477Z,19.44
2022-07-26T20:55:04.440Z,19.39
2022-07-26T21:00:10.064Z,19.35
2022-07-26T21:05:13.626Z,19.40
2022-07-26T21:10:16.772Z,19.39
2022-07-26T21:15:19.531Z,19.17
2022-07-26T21:20:22.325Z,18.88
2022-07-26T21:25:24.932Z,18.71
2022-07-26T21:30:27.726Z,18.72
2022-07-26T21:35:30.730Z,18.75
2022-07-26T21:40:33.490Z,18.74
2022-07-26T21:45:37.135Z,18.84
2022-07-26T21:50:40.016Z,18.76
2022-07-26T21:55:42.757Z,18.77
2022-07-26T22:00:45.383Z,18.75
2022-07-26T22:05:48.751Z,18.91
2022-07-26T22:10:51.637Z,18.85
2022-07-26T22:15:54.481Z,18.79
2022-07-26T22:20:57.228Z,18.63
2022-07-26T22:26:02.408Z,18.43
2022-07-26T22:31:05.040Z,18.18
2022-07-26T22:36:09.797Z,17.85
2022-07-26T22:41:12.456Z,17.64
2022-07-26T22:46:16.404Z,17.37
2022-07-26T22:51:19.610Z,17.12
2022-07-26T22:56:22.419Z,17.02
2022-07-26T23:01:24.946Z,16.77
2022-07-26T23:06:31.403Z,16.52
2022-07-26T23:11:34.855Z,16.60
2022-07-26T23:16:37.949Z,16.52
2022-07-26T23:21:40.874Z,16.36
2022-07-26T23:26:43.434Z,16.12
2022-07-26T23:31:46.000Z,16.10
2022-07-26T23:36:49.059Z,15.98
2022-07-26T23:41:51.723Z,15.93
2022-07-26T23:46:54.237Z,15.87
2022-07-26T23:51:56.815Z,15.77
2022-07-26T23:56:59.530Z,15.61
